createdAt,value
2022-11-04T00:01:28.761Z,1.53
2022-11-04T00:03:56.990Z,2.33
2022-11-04T00:06:25.140Z,1.67
2022-11-04T00:08:53.378Z,1.70
2022-11-04T00:11:39.030Z,1.60
2022-11-04T00:14:07.873Z,1.70
2022-11-04T00:16:54.532Z,1.43
2022-11-04T00:19:22.683Z,1.67
2022-11-04T00:22:08.454Z,1.43
2022-11-04T00:24:53.860Z,1.60
2022-11-04T00:27:39.682Z,2.43
2022-11-04T00:30:09.609Z,1.20
2022-11-04T00:32:52.918Z,1.20
2022-11-04T00:35:20.985Z,1.50
2022-11-04T00:37:51.202Z,1.90
2022-11-04T00:40:21.222Z,1.37
2022-11-04T00:42:49.297Z,1.47
2022-11-04T00:45:17.735Z,2.30
2022-11-04T00:47:47.183Z,1.40
2022-11-04T00:50:15.291Z,1.13
2022-11-04T00:52:43.476Z,1.23
2022-11-04T00:55:12.010Z,0.93
2022-11-04T00:57:40.218Z,1.50
2022-11-04T01:00:09.773Z,1.43
2022-11-04T01:02:37.867Z,1.40
2022-11-04T01:05:08.118Z,1.60
2022-11-04T01:07:41.053Z,1.23
2022-11-04T01:10:17.576Z,1.40
2022-11-04T01:12:45.716Z,1.30
2022-11-04T01:15:13.802Z,2.40
2022-11-04T01:17:42.087Z,1.17
2022-11-04T01:20:13.444Z,1.10
2022-11-04T01:22:41.611Z,1.03
2022-11-04T01:25:10.707Z,1.23
2022-11-04T01:27:38.781Z,1.20
2022-11-04T01:30:08.483Z,1.20
2022-11-04T01:32:36.583Z,2.20
2022-11-04T01:35:04.826Z,0.87
2022-11-04T01:37:34.295Z,1.00
2022-11-04T01:40:02.336Z,1.70
2022-11-04T01:42:30.404Z,1.30
2022-11-04T01:44:59.551Z,1.30
2022-11-04T01:47:33.173Z,1.00
2022-11-04T01:50:03.952Z,1.30
2022-11-04T01:52:35.322Z,1.00
2022-11-04T01:55:04.918Z,1.37
2022-11-04T01:57:35.419Z,1.00
2022-11-04T02:00:05.341Z,1.30
2022-11-04T02:02:33.672Z,1.10
2022-11-04T02:05:01.822Z,5.50
2022-11-04T02:07:29.939Z,1.50
2022-11-04T02:09:59.371Z,1.43
2022-11-04T02:12:45.056Z,4.50
2022-11-04T02:15:13.160Z,1.07
2022-11-04T02:17:57.998Z,2.33
2022-11-04T02:20:31.655Z,1.00
2022-11-04T02:23:35.368Z,1.40
2022-11-04T02:26:25.374Z,1.40
2022-11-04T02:29:10.718Z,1.07
2022-11-04T02:31:41.177Z,1.80
2022-11-04T02:34:12.385Z,0.87
2022-11-04T02:36:48.955Z,0.90
2022-11-04T02:39:20.556Z,1.47
2022-11-04T02:41:52.678Z,1.23
2022-11-04T02:44:23.211Z,0.93
2022-11-04T02:46:52.435Z,1.10
2022-11-04T02:49:22.076Z,1.00
2022-11-04T02:51:51.817Z,1.20
2022-11-04T02:54:23.766Z,1.10
2022-11-04T02:56:52.452Z,1.00
2022-11-04T02:59:24.229Z,2.20
2022-11-04T03:01:52.686Z,0.90
2022-11-04T03:04:22.660Z,1.63
2022-11-04T03:06:50.913Z,2.60
2022-11-04T03:09:19.130Z,1.33
2022-11-04T03:11:47.774Z,1.10
2022-11-04T03:14:17.583Z,1.30
2022-11-04T03:16:48.486Z,2.40
2022-11-04T03:19:18.275Z,2.77
2022-11-04T03:21:52.568Z,1.07
2022-11-04T03:24:20.686Z,3.07
2022-11-04T03:26:50.854Z,1.23
2022-11-04T03:29:24.977Z,1.13
2022-11-04T03:32:01.146Z,1.23
2022-11-04T03:34:29.227Z,1.30
2022-11-04T03:36:57.361Z,1.17
2022-11-04T03:39:25.386Z,1.73
2022-11-04T03:41:55.107Z,0.83
2022-11-04T03:44:23.307Z,1.00
2022-11-04T03:46:54.631Z,1.20
2022-11-04T03:49:24.090Z,0.77
2022-11-04T03:51:52.183Z,0.80
2022-11-04T03:54:20.217Z,1.73
2022-11-04T03:57:13.253Z,0.83
2022-11-04T04:00:01.524Z,1.00
2022-11-04T04:02:35.294Z,6.10
2022-11-04T04:05:08.071Z,1.13
2022-11-04T04:07:38.434Z,2.00
2022-11-04T04:10:29.492Z,2.30
2022-11-04T04:12:59.367Z,0.70
2022-11-04T04:15:29.599Z,0.80
2022-11-04T04:17:59.327Z,0.90
2022-11-04T04:20:29.698Z,1.47
2022-11-04T04:22:59.898Z,0.70
2022-11-04T04:25:42.605Z,1.27
2022-11-04T04:28:11.096Z,3.03
2022-11-04T04:30:39.491Z,1.33
2022-11-04T04:33:08.909Z,0.80
2022-11-04T04:35:44.172Z,1.10
2022-11-04T04:38:41.621Z,1.13
2022-11-04T04:41:29.372Z,1.10
2022-11-04T04:44:30.792Z,2.47
2022-11-04T04:46:58.889Z,1.70
2022-11-04T04:49:35.068Z,0.87
2022-11-04T04:52:05.067Z,2.93
2022-11-04T04:54:33.135Z,0.90
2022-11-04T04:57:01.206Z,2.13
2022-11-04T04:59:29.240Z,2.00
2022-11-04T05:01:57.436Z,1.20
2022-11-04T05:04:25.595Z,1.50
2022-11-04T05:06:53.728Z,2.70
2022-11-04T05:09:23.169Z,3.00
2022-11-04T05:11:54.242Z,1.07
2022-11-04T05:14:31.358Z,2.63
2022-11-04T05:17:01.632Z,1.00
2022-11-04T05:19:30.240Z,0.87
2022-11-04T05:21:58.386Z,1.37
2022-11-04T05:24:27.824Z,1.63
2022-11-04T05:26:55.875Z,2.77
2022-11-04T05:29:23.947Z,1.33
2022-11-04T05:31:55.128Z,1.00
2022-11-04T05:34:23.371Z,0.80
2022-11-04T05:36:51.429Z,2.20
2022-11-04T05:39:19.743Z,4.23
2022-11-04T05:41:49.207Z,1.63
2022-11-04T05:44:17.319Z,2.50
2022-11-04T05:46:45.375Z,2.13
2022-11-04T05:49:13.579Z,1.80
2022-11-04T05:51:55.559Z,0.93
2022-11-04T05:54:24.278Z,2.40
2022-11-04T05:56:53.754Z,1.70
2022-11-04T05:59:21.846Z,4.17
2022-11-04T06:01:50.372Z,1.40
2022-11-04T06:04:19.713Z,2.83
2022-11-04T06:06:47.788Z,3.60
2022-11-04T06:09:15.846Z,2.30
2022-11-04T06:11:43.992Z,3.27
2022-11-04T06:14:18.315Z,1.97
2022-11-04T06:16:46.920Z,1.03
2022-11-04T06:19:16.243Z,1.73
2022-11-04T06:21:44.657Z,2.77
2022-11-04T06:24:12.752Z,2.30
2022-11-04T06:26:41.036Z,1.03
2022-11-04T06:29:09.921Z,2.13
2022-11-04T06:31:39.365Z,3.00
2022-11-04T06:34:14.743Z,4.23
2022-11-04T06:36:42.823Z,1.77
2022-11-04T06:39:10.894Z,3.17
2022-11-04T06:41:38.984Z,2.00
2022-11-04T06:44:07.049Z,1.33
2022-11-04T06:46:37.172Z,1.20
2022-11-04T06:49:13.439Z,1.63
2022-11-04T06:51:41.559Z,2.03
2022-11-04T06:54:09.794Z,2.03
2022-11-04T06:56:37.847Z,1.50
2022-11-04T06:59:06.209Z,2.00
2022-11-04T07:01:35.760Z,3.23
2022-11-04T07:04:05.244Z,2.80
2022-11-04T07:06:45.753Z,1.20
2022-11-04T07:09:14.380Z,3.07
2022-11-04T07:11:42.598Z,3.60
2022-11-04T07:14:10.771Z,1.80
2022-11-04T07:16:38.818Z,1.20
2022-11-04T07:19:07.148Z,3.60
2022-11-04T07:21:36.654Z,1.37
2022-11-04T07:24:07.963Z,6.40
2022-11-04T07:26:36.023Z,2.97
2022-11-04T07:29:05.808Z,5.30
2022-11-04T07:31:33.895Z,1.20
2022-11-04T07:34:03.175Z,3.20
2022-11-04T07:36:31.378Z,3.13
2022-11-04T07:39:01.081Z,3.20
2022-11-04T07:41:32.078Z,2.50
2022-11-04T07:44:02.073Z,1.20
2022-11-04T07:46:30.109Z,1.37
2022-11-04T07:48:58.808Z,3.60
2022-11-04T07:51:26.880Z,3.27
2022-11-04T07:53:55.742Z,2.53
2022-11-04T07:56:25.255Z,3.40
2022-11-04T07:58:53.398Z,1.70
2022-11-04T08:01:23.414Z,3.30
2022-11-04T08:03:51.707Z,5.93
2022-11-04T08:06:20.567Z,1.20
2022-11-04T08:08:49.082Z,2.47
2022-11-04T08:11:18.259Z,10.23
2022-11-04T08:13:47.810Z,2.43
2022-11-04T08:16:16.696Z,1.30
2022-11-04T08:18:45.048Z,5.80
2022-11-04T08:21:13.258Z,2.93
2022-11-04T08:23:41.395Z,3.30
2022-11-04T08:26:10.127Z,3.40
2022-11-04T08:28:38.224Z,3.77
2022-11-04T08:31:13.659Z,4.57
2022-11-04T08:33:42.338Z,3.83
2022-11-04T08:36:12.344Z,2.97
2022-11-04T08:38:40.445Z,2.03
2022-11-04T08:41:09.104Z,5.80
2022-11-04T08:43:37.204Z,3.67
2022-11-04T08:46:06.849Z,3.77
2022-11-04T08:48:36.957Z,1.87
2022-11-04T08:51:05.870Z,3.13
2022-11-04T08:53:33.935Z,1.40
2022-11-04T08:56:02.001Z,2.23
2022-11-04T08:58:30.084Z,1.57
2022-11-04T09:00:58.164Z,1.20
2022-11-04T09:03:26.320Z,2.03
2022-11-04T09:05:55.877Z,2.60
2022-11-04T09:08:23.955Z,6.10
2022-11-04T09:10:52.064Z,1.90
2022-11-04T09:13:20.263Z,3.77
2022-11-04T09:15:49.272Z,2.77
2022-11-04T09:18:17.470Z,2.73
2022-11-04T09:20:45.551Z,0.90
2022-11-04T09:23:15.283Z,2.90
2022-11-04T09:25:43.389Z,3.43
2022-11-04T09:28:11.469Z,1.80
2022-11-04T09:30:39.622Z,3.90
2022-11-04T09:33:08.095Z,1.93
2022-11-04T09:35:36.498Z,4.30
2022-11-04T09:38:04.717Z,3.77
2022-11-04T09:40:36.711Z,2.40
2022-11-04T09:43:15.196Z,2.23
2022-11-04T09:45:43.695Z,3.70
2022-11-04T09:48:13.891Z,1.80
2022-11-04T09:50:45.545Z,3.80
2022-11-04T09:53:17.807Z,2.00
2022-11-04T09:55:50.725Z,1.40
2022-11-04T09:58:19.059Z,3.37
2022-11-04T10:00:51.185Z,3.17
2022-11-04T10:03:25.386Z,2.13
2022-11-04T10:05:59.212Z,1.37
2022-11-04T10:08:37.937Z,1.93
2022-11-04T10:11:09.897Z,2.80
2022-11-04T10:13:48.040Z,1.30
2022-11-04T10:16:26.402Z,2.50
2022-11-04T10:19:10.191Z,2.53
2022-11-04T10:21:45.043Z,2.70
2022-11-04T10:24:21.574Z,3.90
2022-11-04T10:26:57.469Z,1.37
2022-11-04T10:29:30.201Z,2.53
2022-11-04T10:31:58.895Z,3.03
2022-11-04T10:34:32.155Z,2.40
2022-11-04T10:37:00.331Z,1.53
2022-11-04T10:39:38.110Z,3.33
2022-11-04T10:42:07.717Z,2.43
2022-11-04T10:44:36.024Z,1.43
2022-11-04T10:47:08.875Z,2.03
2022-11-04T10:52:51.345Z,1.13
2022-11-04T10:55:30.835Z,3.03
2022-11-04T10:58:00.431Z,3.57
2022-11-04T11:00:36.173Z,1.30
2022-11-04T11:03:04.319Z,4.50
2022-11-04T11:05:32.359Z,3.13
2022-11-04T11:08:00.497Z,1.43
2022-11-04T11:10:29.217Z,2.67
2022-11-04T11:13:09.337Z,2.50
2022-11-04T11:15:38.731Z,1.63
2022-11-04T11:18:16.448Z,3.80
2022-11-04T11:20:44.613Z,4.57
2022-11-04T11:23:34.105Z,5.57
2022-11-04T11:26:02.312Z,1.63
2022-11-04T11:28:39.887Z,3.07
2022-11-04T11:31:13.263Z,2.30
2022-11-04T11:33:43.198Z,1.70
2022-11-04T11:36:16.064Z,2.93
2022-11-04T11:38:57.321Z,4.33
2022-11-04T11:41:31.513Z,1.77
2022-11-04T11:44:06.024Z,1.87
2022-11-04T11:46:37.981Z,1.13
2022-11-04T11:49:06.428Z,1.53
2022-11-04T11:51:35.325Z,1.93
2022-11-04T11:54:15.844Z,4.50
2022-11-04T11:57:12.048Z,1.53
2022-11-04T12:02:30.078Z,1.90
2022-11-04T12:10:51.074Z,1.93
2022-11-04T12:13:24.421Z,3.33
2022-11-04T12:16:10.549Z,1.20
2022-11-04T12:18:54.051Z,1.30
2022-11-04T12:21:33.932Z,2.83
2022-11-04T12:24:06.125Z,1.20
2022-11-04T12:26:37.815Z,2.10
2022-11-04T12:29:17.967Z,1.10
2022-11-04T12:31:51.696Z,1.60
2022-11-04T12:34:28.392Z,3.70
2022-11-04T12:37:05.353Z,1.70
2022-11-04T12:39:46.191Z,2.20
2022-11-04T12:42:21.886Z,1.10
2022-11-04T12:44:55.023Z,1.17
2022-11-04T12:47:30.332Z,2.33
2022-11-04T12:50:07.425Z,2.40
2022-11-04T12:52:49.498Z,1.97
2022-11-04T12:55:27.697Z,3.20
2022-11-04T12:57:59.612Z,1.93
2022-11-04T13:00:28.952Z,1.90
2022-11-04T13:03:01.488Z,1.53
2022-11-04T13:05:35.354Z,2.30
2022-11-04T13:08:11.208Z,1.20
2022-11-04T13:10:44.063Z,1.20
2022-11-04T13:13:12.287Z,1.50
2022-11-04T13:15:46.157Z,1.30
2022-11-04T13:18:18.997Z,1.33
2022-11-04T13:20:50.052Z,4.10
2022-11-04T13:23:21.450Z,3.13
2022-11-04T13:25:49.652Z,3.80
2022-11-04T13:28:19.647Z,2.20
2022-11-04T13:30:51.352Z,1.43
2022-11-04T13:33:25.101Z,3.20
2022-11-04T13:35:57.190Z,1.90
2022-11-04T13:38:26.893Z,5.03
2022-11-04T13:41:02.150Z,1.50
2022-11-04T13:43:42.951Z,3.23
2022-11-04T13:46:21.273Z,2.63
2022-11-04T13:49:19.323Z,2.47
2022-11-04T13:51:48.119Z,3.43
2022-11-04T13:54:27.302Z,2.20
2022-11-04T13:57:10.928Z,1.60
2022-11-04T13:59:39.088Z,1.80
2022-11-04T14:02:26.912Z,2.27
2022-11-04T14:04:56.425Z,1.57
2022-11-04T14:08:12.231Z,2.50
2022-11-04T14:11:03.263Z,2.50
2022-11-04T14:14:11.009Z,1.90
2022-11-04T14:16:43.300Z,1.77
2022-11-04T14:19:59.697Z,2.97
2022-11-04T14:22:36.042Z,6.80
2022-11-04T14:25:06.148Z,2.50
2022-11-04T14:27:40.515Z,1.50
2022-11-04T14:30:12.934Z,2.40
2022-11-04T14:32:41.830Z,3.57
2022-11-04T14:35:18.276Z,3.07
2022-11-04T14:37:46.675Z,1.83
2022-11-04T14:40:26.146Z,5.90
2022-11-04T14:42:56.646Z,1.83
2022-11-04T14:45:25.484Z,2.27
2022-11-04T14:47:55.462Z,3.70
2022-11-04T14:50:25.544Z,2.20
2022-11-04T14:52:56.135Z,2.47
2022-11-04T14:55:24.823Z,2.20
2022-11-04T14:57:57.913Z,1.90
2022-11-04T15:00:29.421Z,1.90
2022-11-04T15:03:03.132Z,4.70
2022-11-04T15:05:33.488Z,4.10
2022-11-04T15:08:01.542Z,2.30
2022-11-04T15:10:32.632Z,2.00
2022-11-04T15:13:03.382Z,4.63
2022-11-04T15:15:34.483Z,4.00
2022-11-04T15:18:04.238Z,2.90
2022-11-04T15:20:32.627Z,2.87
2022-11-04T15:23:01.950Z,2.50
2022-11-04T15:25:30.014Z,2.07
2022-11-04T15:27:58.408Z,2.60
2022-11-04T15:30:29.528Z,4.20
2022-11-04T15:32:59.904Z,2.87
2022-11-04T15:35:28.366Z,3.40
2022-11-04T15:37:56.471Z,3.13
2022-11-04T15:40:24.529Z,3.30
2022-11-04T15:42:51.699Z,2.80
2022-11-04T15:45:38.324Z,2.93
2022-11-04T15:48:25.968Z,5.00
2022-11-04T15:50:56.808Z,5.00
2022-11-04T15:53:24.960Z,3.17
2022-11-04T15:55:53.407Z,3.10
2022-11-04T15:58:21.610Z,3.40
2022-11-04T16:00:55.242Z,4.00
2022-11-04T16:03:26.345Z,2.53
2022-11-04T16:06:06.556Z,5.20
2022-11-04T16:08:34.618Z,4.50
2022-11-04T16:11:13.922Z,3.60
2022-11-04T16:13:42.036Z,3.10
2022-11-04T16:16:25.545Z,6.20
2022-11-04T16:18:54.952Z,5.47
2022-11-04T16:21:25.043Z,4.80
2022-11-04T16:23:58.317Z,4.57
2022-11-04T16:26:37.359Z,5.00
2022-11-04T16:29:09.003Z,4.00
2022-11-04T16:31:38.542Z,6.53
2022-11-04T16:34:09.530Z,4.30
2022-11-04T16:36:37.599Z,4.17
2022-11-04T16:39:08.955Z,7.03
2022-11-04T16:41:37.813Z,4.50
2022-11-04T16:44:06.319Z,3.60
2022-11-04T16:46:34.659Z,4.70
2022-11-04T16:49:04.166Z,4.23
2022-11-04T16:51:32.646Z,5.60
2022-11-04T16:54:00.968Z,4.90
2022-11-04T16:56:29.115Z,5.23
2022-11-04T16:58:57.340Z,3.33
2022-11-04T17:01:25.509Z,6.60
2022-11-04T17:03:53.892Z,4.70
2022-11-04T17:06:23.378Z,6.63
2022-11-04T17:08:51.628Z,5.63
2022-11-04T17:11:19.693Z,4.57
2022-11-04T17:13:47.815Z,7.27
2022-11-04T17:16:16.057Z,4.37
2022-11-04T17:18:44.160Z,3.07
2022-11-04T17:21:17.060Z,5.13
2022-11-04T17:23:46.600Z,4.90
2022-11-04T17:26:15.188Z,4.93
2022-11-04T17:28:43.315Z,3.40
2022-11-04T17:31:13.017Z,4.90
2022-11-04T17:33:41.147Z,3.67
2022-11-04T17:36:11.620Z,4.27
2022-11-04T17:38:39.687Z,7.33
2022-11-04T17:44:08.404Z,5.00
2022-11-04T17:46:38.053Z,4.70
2022-11-04T17:49:08.793Z,4.47
2022-11-04T17:51:36.949Z,4.80
2022-11-04T17:54:05.297Z,4.40
2022-11-04T17:56:34.716Z,5.90
2022-11-04T17:59:03.951Z,4.30
2022-11-04T18:01:32.422Z,5.50
2022-11-04T18:04:00.734Z,6.53
2022-11-04T18:06:30.554Z,3.67
2022-11-04T18:08:59.117Z,4.47
2022-11-04T18:11:45.297Z,5.30
2022-11-04T18:14:16.822Z,4.00
2022-11-04T18:16:46.087Z,5.60
2022-11-04T18:19:14.197Z,6.20
2022-11-04T18:21:42.522Z,5.70
2022-11-04T18:24:10.621Z,4.17
2022-11-04T18:26:38.705Z,5.43
2022-11-04T18:29:06.747Z,4.23
2022-11-04T18:31:36.864Z,4.30
2022-11-04T18:34:06.567Z,6.03
2022-11-04T18:36:50.792Z,3.67
2022-11-04T18:39:19.429Z,5.90
2022-11-04T18:41:47.491Z,3.97
2022-11-04T18:44:16.710Z,5.83
2022-11-04T18:46:46.633Z,6.63
2022-11-04T18:49:14.818Z,4.23
2022-11-04T18:51:42.859Z,7.03
2022-11-04T18:54:12.282Z,4.57
2022-11-04T18:56:40.914Z,4.60
2022-11-04T18:59:10.489Z,4.63
2022-11-04T19:01:39.044Z,5.40
2022-11-04T19:04:08.688Z,3.67
2022-11-04T19:06:38.641Z,5.00
2022-11-04T19:09:32.162Z,5.37
2022-11-04T19:12:28.750Z,4.20
2022-11-04T19:14:56.829Z,4.00
2022-11-04T19:17:25.277Z,5.20
2022-11-04T19:19:54.717Z,6.70
2022-11-04T19:22:22.780Z,4.47
2022-11-04T19:24:50.871Z,6.23
2022-11-04T19:27:21.559Z,7.10
2022-11-04T19:29:49.731Z,5.60
2022-11-04T19:32:20.837Z,5.30
2022-11-04T19:34:49.672Z,4.70
2022-11-04T19:37:19.125Z,5.30
2022-11-04T19:39:47.228Z,7.13
2022-11-04T19:42:35.141Z,7.53
2022-11-04T19:45:03.291Z,5.97
2022-11-04T19:47:31.422Z,7.13
2022-11-04T19:50:06.101Z,5.83
2022-11-04T19:52:35.685Z,6.90
2022-11-04T19:55:03.863Z,7.13
2022-11-04T19:57:31.913Z,8.27
2022-11-04T20:00:00.240Z,9.83
2022-11-04T20:02:28.434Z,7.27
2022-11-04T20:04:56.545Z,7.10
2022-11-04T20:07:24.658Z,9.30
2022-11-04T20:09:54.633Z,7.57
2022-11-04T20:12:39.944Z,8.57
2022-11-04T20:15:09.412Z,6.60
2022-11-04T20:17:37.484Z,7.40
2022-11-04T20:20:06.317Z,5.13
2022-11-04T20:22:34.377Z,11.60
2022-11-04T20:25:03.796Z,13.13
2022-11-04T20:27:32.033Z,10.63
2022-11-04T20:30:00.140Z,5.60
2022-11-04T20:32:28.734Z,6.00
2022-11-04T20:34:56.872Z,7.97
2022-11-04T20:37:25.677Z,7.20
2022-11-04T20:39:53.801Z,7.20
2022-11-04T20:42:31.468Z,5.83
2022-11-04T20:44:59.581Z,6.23
2022-11-04T20:47:27.691Z,8.70
2022-11-04T20:49:55.800Z,5.97
2022-11-04T20:52:23.851Z,5.87
2022-11-04T20:54:51.954Z,5.70
2022-11-04T20:57:20.080Z,6.27
2022-11-04T20:59:49.559Z,8.63
2022-11-04T21:02:17.707Z,10.30
2022-11-04T21:04:45.851Z,8.17
2022-11-04T21:07:14.001Z,8.40
2022-11-04T21:09:42.109Z,8.20
2022-11-04T21:12:10.223Z,7.67
2022-11-04T21:14:38.254Z,5.80
2022-11-04T21:17:07.698Z,6.80
2022-11-04T21:19:35.697Z,6.90
2022-11-04T21:22:03.726Z,7.70
2022-11-04T21:24:37.916Z,7.87
2022-11-04T21:27:07.333Z,7.40
2022-11-04T21:29:35.435Z,6.77
2022-11-04T21:32:03.667Z,6.83
2022-11-04T21:34:33.147Z,7.87
2022-11-04T21:37:01.308Z,7.37
2022-11-04T21:39:29.498Z,9.73
2022-11-04T21:41:57.580Z,8.80
2022-11-04T21:44:26.099Z,9.53
2022-11-04T21:46:54.297Z,8.20
2022-11-04T21:49:22.358Z,8.07
2022-11-04T21:51:51.750Z,7.30
2022-11-04T21:54:27.305Z,7.07
2022-11-04T21:56:55.428Z,8.37
2022-11-04T21:59:23.525Z,9.40
2022-11-04T22:01:51.777Z,7.70
2022-11-04T22:04:19.913Z,9.70
2022-11-04T22:06:47.997Z,6.90
2022-11-04T22:09:17.465Z,6.57
2022-11-04T22:11:48.682Z,10.30
2022-11-04T22:14:16.719Z,7.80
2022-11-04T22:16:44.823Z,7.27
2022-11-04T22:19:13.851Z,9.43
2022-11-04T22:21:42.545Z,10.00
2022-11-04T22:24:11.371Z,8.67
2022-11-04T22:26:40.880Z,10.73
2022-11-04T22:29:08.972Z,9.90
2022-11-04T22:31:37.782Z,11.73
2022-11-04T22:34:05.886Z,9.23
2022-11-04T22:36:34.234Z,7.67
2022-11-04T22:39:03.412Z,11.47
2022-11-04T22:41:32.606Z,9.83
2022-11-04T22:44:03.259Z,8.40
2022-11-04T22:46:35.211Z,7.60
2022-11-04T22:49:03.807Z,8.73
2022-11-04T22:51:32.606Z,8.93
2022-11-04T22:54:07.536Z,7.97
2022-11-04T22:56:36.449Z,10.63
2022-11-04T22:59:06.074Z,7.60
2022-11-04T23:01:34.464Z,8.80
2022-11-04T23:04:02.893Z,7.60
2022-11-04T23:06:38.565Z,7.93
2022-11-04T23:09:06.855Z,11.07
2022-11-04T23:11:52.314Z,8.27
2022-11-04T23:14:39.579Z,8.57
2022-11-04T23:17:32.374Z,9.97
2022-11-04T23:20:00.451Z,11.07
2022-11-04T23:22:54.456Z,10.53
2022-11-04T23:25:24.580Z,6.93
2022-11-04T23:28:11.461Z,9.33
2022-11-04T23:30:42.265Z,6.47
2022-11-04T23:33:11.506Z,7.27
2022-11-04T23:35:58.230Z,10.10
2022-11-04T23:38:26.534Z,7.83
2022-11-04T23:41:14.087Z,8.10
2022-11-04T23:43:48.046Z,7.37
2022-11-04T23:46:41.068Z,8.10
2022-11-04T23:49:29.147Z,6.70
2022-11-04T23:52:14.695Z,7.17
2022-11-04T23:54:59.876Z,9.07
2022-11-04T23:57:45.237Z,6.63
